sensor_id;sensor_type;location;lat;lon;timestamp;temperature;humidity
42617;DHT22;28250;52.320;0.360;2022-12-29T00:02:16;9.30;99.90
42617;DHT22;28250;52.320;0.360;2022-12-29T00:04:42;9.20;99.90
42617;DHT22;28250;52.320;0.360;2022-12-29T00:07:09;9.00;99.90
42617;DHT22;28250;52.320;0.360;2022-12-29T00:09:35;9.00;99.90
42617;DHT22;28250;52.320;0.360;2022-12-29T00:12:02;8.90;99.90
42617;DHT22;28250;52.320;0.360;2022-12-29T00:14:29;8.80;99.90
42617;DHT22;28250;52.320;0.360;2022-12-29T00:17:13;8.70;99.90
42617;DHT22;28250;52.320;0.360;2022-12-29T00:19:40;8.60;99.90
42617;DHT22;28250;52.320;0.360;2022-12-29T00:22:25;8.60;99.90
42617;DHT22;28250;52.320;0.360;2022-12-29T00:25:10;8.50;99.90
42617;DHT22;28250;52.320;0.360;2022-12-29T00:27:56;8.40;99.90
42617;DHT22;28250;52.320;0.360;2022-12-29T00:30:41;8.40;99.90
42617;DHT22;28250;52.320;0.360;2022-12-29T00:33:29;8.30;99.90
42617;DHT22;28250;52.320;0.360;2022-12-29T00:38:45;8.30;99.90
42617;DHT22;28250;52.320;0.360;2022-12-29T00:41:32;8.40;99.90
42617;DHT22;28250;52.320;0.360;2022-12-29T00:44:17;8.50;99.90
42617;DHT22;28250;52.320;0.360;2022-12-29T00:46:43;8.50;99.90
42617;DHT22;28250;52.320;0.360;2022-12-29T00:49:10;8.50;99.90
42617;DHT22;28250;52.320;0.360;2022-12-29T00:52:00;8.60;99.90
42617;DHT22;28250;52.320;0.360;2022-12-29T00:54:29;8.60;99.90
42617;DHT22;28250;52.320;0.360;2022-12-29T00:56:57;8.70;99.90
42617;DHT22;28250;52.320;0.360;2022-12-29T00:59:23;8.60;99.90
42617;DHT22;28250;52.320;0.360;2022-12-29T01:01:50;8.60;99.90
42617;DHT22;28250;52.320;0.360;2022-12-29T01:04:20;8.70;99.90
42617;DHT22;28250;52.320;0.360;2022-12-29T01:06:48;8.70;99.90
42617;DHT22;28250;52.320;0.360;2022-12-29T01:09:15;8.70;99.90
42617;DHT22;28250;52.320;0.360;2022-12-29T01:12:01;8.80;99.90
42617;DHT22;28250;52.320;0.360;2022-12-29T01:14:27;8.70;99.90
42617;DHT22;28250;52.320;0.360;2022-12-29T01:16:54;8.70;99.90
42617;DHT22;28250;52.320;0.360;2022-12-29T01:19:21;8.70;99.90
42617;DHT22;28250;52.320;0.360;2022-12-29T01:21:48;8.70;99.90
42617;DHT22;28250;52.320;0.360;2022-12-29T01:24:15;8.70;99.90
42617;DHT22;28250;52.320;0.360;2022-12-29T01:26:42;8.70;99.90
42617;DHT22;28250;52.320;0.360;2022-12-29T01:29:09;8.70;99.90
42617;DHT22;28250;52.320;0.360;2022-12-29T01:31:36;8.70;99.90
42617;DHT22;28250;52.320;0.360;2022-12-29T01:34:02;8.80;99.90
42617;DHT22;28250;52.320;0.360;2022-12-29T01:36:29;8.70;99.90
42617;DHT22;28250;52.320;0.360;2022-12-29T01:38:56;8.70;99.90
42617;DHT22;28250;52.320;0.360;2022-12-29T01:41:22;8.60;99.90
42617;DHT22;28250;52.320;0.360;2022-12-29T01:43:49;8.60;99.90
42617;DHT22;28250;52.320;0.360;2022-12-29T01:51:35;8.60;99.90
42617;DHT22;28250;52.320;0.360;2022-12-29T01:54:05;8.50;99.90
42617;DHT22;28250;52.320;0.360;2022-12-29T01:56:36;8.50;99.90
42617;DHT22;28250;52.320;0.360;2022-12-29T01:59:04;8.50;99.90
42617;DHT22;28250;52.320;0.360;2022-12-29T02:01:34;8.40;99.90
42617;DHT22;28250;52.320;0.360;2022-12-29T02:04:00;8.40;99.90
42617;DHT22;28250;52.320;0.360;2022-12-29T02:06:29;8.30;99.90
42617;DHT22;28250;52.320;0.360;2022-12-29T02:08:59;8.30;99.90
42617;DHT22;28250;52.320;0.360;2022-12-29T02:11:25;8.30;99.90
42617;DHT22;28250;52.320;0.360;2022-12-29T02:13:53;8.30;99.90
42617;DHT22;28250;52.320;0.360;2022-12-29T02:24:48;8.40;99.90
42617;DHT22;28250;52.320;0.360;2022-12-29T02:40:57;8.50;99.90
42617;DHT22;28250;52.320;0.360;2022-12-29T02:46:19;8.50;99.90
42617;DHT22;28250;52.320;0.360;2022-12-29T02:48:55;8.50;99.90
42617;DHT22;28250;52.320;0.360;2022-12-29T02:51:27;8.50;99.90
42617;DHT22;28250;52.320;0.360;2022-12-29T02:53:57;8.50;99.90
42617;DHT22;28250;52.320;0.360;2022-12-29T02:56:43;8.40;99.90
42617;DHT22;28250;52.320;0.360;2022-12-29T02:59:10;8.50;99.90
42617;DHT22;28250;52.320;0.360;2022-12-29T03:04:37;8.40;99.90
42617;DHT22;28250;52.320;0.360;2022-12-29T03:07:12;8.40;99.90
42617;DHT22;28250;52.320;0.360;2022-12-29T03:16:20;8.30;99.90
42617;DHT22;28250;52.320;0.360;2022-12-29T03:19:08;8.40;99.90
42617;DHT22;28250;52.320;0.360;2022-12-29T03:21:39;8.30;99.90
42617;DHT22;28250;52.320;0.360;2022-12-29T03:24:32;8.30;99.90
42617;DHT22;28250;52.320;0.360;2022-12-29T03:27:03;8.40;99.90
42617;DHT22;28250;52.320;0.360;2022-12-29T03:29:39;8.40;99.90
42617;DHT22;28250;52.320;0.360;2022-12-29T03:32:08;8.40;99.90
42617;DHT22;28250;52.320;0.360;2022-12-29T03:34:35;8.30;99.90
42617;DHT22;28250;52.320;0.360;2022-12-29T03:37:05;8.30;99.90
42617;DHT22;28250;52.320;0.360;2022-12-29T03:39:35;8.30;99.90
42617;DHT22;28250;52.320;0.360;2022-12-29T03:42:02;8.30;99.90
42617;DHT22;28250;52.320;0.360;2022-12-29T03:44:33;8.30;99.90
42617;DHT22;28250;52.320;0.360;2022-12-29T03:47:03;8.40;99.90
42617;DHT22;28250;52.320;0.360;2022-12-29T03:49:29;8.30;99.90
42617;DHT22;28250;52.320;0.360;2022-12-29T03:51:56;8.40;99.90
42617;DHT22;28250;52.320;0.360;2022-12-29T03:54:23;8.30;99.90
42617;DHT22;28250;52.320;0.360;2022-12-29T03:56:49;8.30;99.90
42617;DHT22;28250;52.320;0.360;2022-12-29T03:59:22;8.20;99.90
42617;DHT22;28250;52.320;0.360;2022-12-29T04:01:48;8.30;99.90
42617;DHT22;28250;52.320;0.360;2022-12-29T04:04:15;8.40;99.90
42617;DHT22;28250;52.320;0.360;2022-12-29T04:06:41;8.40;99.90
42617;DHT22;28250;52.320;0.360;2022-12-29T04:09:09;8.30;99.90
42617;DHT22;28250;52.320;0.360;2022-12-29T04:11:40;8.40;99.90
42617;DHT22;28250;52.320;0.360;2022-12-29T04:14:07;8.40;99.90
42617;DHT22;28250;52.320;0.360;2022-12-29T04:16:33;8.40;99.90
42617;DHT22;28250;52.320;0.360;2022-12-29T04:19:03;8.40;99.90
42617;DHT22;28250;52.320;0.360;2022-12-29T04:21:29;8.40;99.90
42617;DHT22;28250;52.320;0.360;2022-12-29T04:23:56;8.60;99.90
42617;DHT22;28250;52.320;0.360;2022-12-29T04:26:22;8.50;99.90
42617;DHT22;28250;52.320;0.360;2022-12-29T04:28:55;8.60;99.90
42617;DHT22;28250;52.320;0.360;2022-12-29T04:31:41;8.70;99.90
42617;DHT22;28250;52.320;0.360;2022-12-29T04:34:07;8.70;99.90
42617;DHT22;28250;52.320;0.360;2022-12-29T04:36:33;8.70;99.90
42617;DHT22;28250;52.320;0.360;2022-12-29T04:39:00;8.70;99.90
42617;DHT22;28250;52.320;0.360;2022-12-29T04:41:26;8.70;99.90
42617;DHT22;28250;52.320;0.360;2022-12-29T04:43:53;8.90;99.90
42617;DHT22;28250;52.320;0.360;2022-12-29T04:46:19;8.80;99.90
42617;DHT22;28250;52.320;0.360;2022-12-29T04:49:04;8.90;99.90
42617;DHT22;28250;52.320;0.360;2022-12-29T04:51:52;9.10;99.90
42617;DHT22;28250;52.320;0.360;2022-12-29T04:54:19;9.00;99.90
42617;DHT22;28250;52.320;0.360;2022-12-29T04:56:53;9.00;99.90
42617;DHT22;28250;52.320;0.360;2022-12-29T04:59:19;9.10;99.90
42617;DHT22;28250;52.320;0.360;2022-12-29T05:01:48;9.10;99.90
42617;DHT22;28250;52.320;0.360;2022-12-29T05:04:15;9.10;99.90
42617;DHT22;28250;52.320;0.360;2022-12-29T05:06:42;9.00;99.90
42617;DHT22;28250;52.320;0.360;2022-12-29T05:09:09;9.20;99.90
42617;DHT22;28250;52.320;0.360;2022-12-29T05:11:35;9.20;99.90
42617;DHT22;28250;52.320;0.360;2022-12-29T05:14:01;9.20;99.90
42617;DHT22;28250;52.320;0.360;2022-12-29T05:16:28;9.10;99.90
42617;DHT22;28250;52.320;0.360;2022-12-29T05:18:54;9.10;99.90
42617;DHT22;28250;52.320;0.360;2022-12-29T05:21:21;9.10;99.90
42617;DHT22;28250;52.320;0.360;2022-12-29T05:23:47;9.10;99.90
42617;DHT22;28250;52.320;0.360;2022-12-29T05:26:14;9.10;99.90
42617;DHT22;28250;52.320;0.360;2022-12-29T05:28:55;9.00;99.90
42617;DHT22;28250;52.320;0.360;2022-12-29T05:31:22;9.00;99.90
42617;DHT22;28250;52.320;0.360;2022-12-29T05:33:48;8.90;99.90
42617;DHT22;28250;52.320;0.360;2022-12-29T05:36:14;8.90;99.90
42617;DHT22;28250;52.320;0.360;2022-12-29T05:38:46;8.90;99.90
42617;DHT22;28250;52.320;0.360;2022-12-29T05:41:12;8.80;99.90
42617;DHT22;28250;52.320;0.360;2022-12-29T05:43:57;8.70;99.90
42617;DHT22;28250;52.320;0.360;2022-12-29T05:46:29;8.60;99.90
42617;DHT22;28250;52.320;0.360;2022-12-29T05:49:08;8.60;99.90
42617;DHT22;28250;52.320;0.360;2022-12-29T05:51:53;8.60;99.90
42617;DHT22;28250;52.320;0.360;2022-12-29T05:54:19;8.50;99.90
42617;DHT22;28250;52.320;0.360;2022-12-29T05:56:46;8.40;99.90
42617;DHT22;28250;52.320;0.360;2022-12-29T05:59:15;8.30;99.90
42617;DHT22;28250;52.320;0.360;2022-12-29T06:01:41;8.20;99.90
42617;DHT22;28250;52.320;0.360;2022-12-29T06:04:08;8.20;99.90
42617;DHT22;28250;52.320;0.360;2022-12-29T06:06:34;8.10;99.90
42617;DHT22;28250;52.320;0.360;2022-12-29T06:09:02;8.10;99.90
42617;DHT22;28250;52.320;0.360;2022-12-29T06:11:28;8.00;99.90
42617;DHT22;28250;52.320;0.360;2022-12-29T06:13:57;8.00;99.90
42617;DHT22;28250;52.320;0.360;2022-12-29T06:16:24;7.90;99.90
42617;DHT22;28250;52.320;0.360;2022-12-29T06:18:53;7.80;99.90
42617;DHT22;28250;52.320;0.360;2022-12-29T06:21:19;7.80;99.90
42617;DHT22;28250;52.320;0.360;2022-12-29T06:23:46;7.80;99.90
42617;DHT22;28250;52.320;0.360;2022-12-29T06:26:12;7.70;99.90
42617;DHT22;28250;52.320;0.360;2022-12-29T06:28:38;7.70;99.90
42617;DHT22;28250;52.320;0.360;2022-12-29T06:31:05;7.70;99.90
42617;DHT22;28250;52.320;0.360;2022-12-29T06:33:35;7.70;99.90
42617;DHT22;28250;52.320;0.360;2022-12-29T06:36:01;7.60;99.90
42617;DHT22;28250;52.320;0.360;2022-12-29T06:38:29;7.60;99.90
42617;DHT22;28250;52.320;0.360;2022-12-29T06:40:57;7.60;99.90
42617;DHT22;28250;52.320;0.360;2022-12-29T06:43:42;7.50;99.90
42617;DHT22;28250;52.320;0.360;2022-12-29T06:46:29;7.50;99.90
42617;DHT22;28250;52.320;0.360;2022-12-29T06:48:55;7.50;99.90
42617;DHT22;28250;52.320;0.360;2022-12-29T06:51:21;7.50;99.90
42617;DHT22;28250;52.320;0.360;2022-12-29T06:53:47;7.50;99.90
42617;DHT22;28250;52.320;0.360;2022-12-29T06:56:14;7.40;99.90
42617;DHT22;28250;52.320;0.360;2022-12-29T06:58:40;7.40;99.90
42617;DHT22;28250;52.320;0.360;2022-12-29T07:01:06;7.40;99.90
42617;DHT22;28250;52.320;0.360;2022-12-29T07:03:33;7.40;99.90
42617;DHT22;28250;52.320;0.360;2022-12-29T07:05:59;7.40;99.90
42617;DHT22;28250;52.320;0.360;2022-12-29T07:08:25;7.40;99.90
42617;DHT22;28250;52.320;0.360;2022-12-29T07:10:51;7.50;99.90
42617;DHT22;28250;52.320;0.360;2022-12-29T07:13:17;7.40;99.90
42617;DHT22;28250;52.320;0.360;2022-12-29T07:15:43;7.40;99.90
42617;DHT22;28250;52.320;0.360;2022-12-29T07:18:10;7.40;99.90
42617;DHT22;28250;52.320;0.360;2022-12-29T07:20:36;7.30;99.90
42617;DHT22;28250;52.320;0.360;2022-12-29T07:23:02;7.30;99.90
42617;DHT22;28250;52.320;0.360;2022-12-29T07:25:28;7.40;99.90
42617;DHT22;28250;52.320;0.360;2022-12-29T07:27:55;7.30;99.90
42617;DHT22;28250;52.320;0.360;2022-12-29T07:30:21;7.30;99.90
42617;DHT22;28250;52.320;0.360;2022-12-29T07:32:47;7.30;99.90
42617;DHT22;28250;52.320;0.360;2022-12-29T07:35:13;7.30;99.90
42617;DHT22;28250;52.320;0.360;2022-12-29T07:37:40;7.20;99.90
42617;DHT22;28250;52.320;0.360;2022-12-29T07:40:06;7.10;99.90
42617;DHT22;28250;52.320;0.360;2022-12-29T07:42:33;7.20;99.90
42617;DHT22;28250;52.320;0.360;2022-12-29T07:44:59;7.10;99.90
42617;DHT22;28250;52.320;0.360;2022-12-29T07:47:32;7.10;99.90
42617;DHT22;28250;52.320;0.360;2022-12-29T07:49:58;7.00;99.90
42617;DHT22;28250;52.320;0.360;2022-12-29T07:52:24;7.00;99.90
42617;DHT22;28250;52.320;0.360;2022-12-29T07:54:51;7.00;99.90
42617;DHT22;28250;52.320;0.360;2022-12-29T07:57:17;7.00;99.90
42617;DHT22;28250;52.320;0.360;2022-12-29T07:59:43;7.00;99.90
42617;DHT22;28250;52.320;0.360;2022-12-29T08:02:10;6.90;99.90
42617;DHT22;28250;52.320;0.360;2022-12-29T08:04:37;6.90;99.90
42617;DHT22;28250;52.320;0.360;2022-12-29T08:07:03;6.90;99.90
42617;DHT22;28250;52.320;0.360;2022-12-29T08:09:29;6.80;99.90
42617;DHT22;28250;52.320;0.360;2022-12-29T08:11:55;6.90;99.90
42617;DHT22;28250;52.320;0.360;2022-12-29T08:14:22;6.90;99.90
42617;DHT22;28250;52.320;0.360;2022-12-29T08:16:48;6.90;99.90
42617;DHT22;28250;52.320;0.360;2022-12-29T08:19:14;6.90;99.90
42617;DHT22;28250;52.320;0.360;2022-12-29T08:21:40;6.80;99.90
42617;DHT22;28250;52.320;0.360;2022-12-29T08:24:07;6.90;99.90
42617;DHT22;28250;52.320;0.360;2022-12-29T08:26:34;6.90;99.90
42617;DHT22;28250;52.320;0.360;2022-12-29T08:29:00;6.90;99.90
42617;DHT22;28250;52.320;0.360;2022-12-29T08:31:26;6.90;99.90
42617;DHT22;28250;52.320;0.360;2022-12-29T08:33:52;6.90;99.90
42617;DHT22;28250;52.320;0.360;2022-12-29T08:36:19;6.90;99.90
42617;DHT22;28250;52.320;0.360;2022-12-29T08:38:45;6.90;99.90
42617;DHT22;28250;52.320;0.360;2022-12-29T08:41:11;6.90;99.90
42617;DHT22;28250;52.320;0.360;2022-12-29T08:43:37;6.90;99.90
42617;DHT22;28250;52.320;0.360;2022-12-29T08:46:04;6.90;99.90
42617;DHT22;28250;52.320;0.360;2022-12-29T08:48:30;6.90;99.90
42617;DHT22;28250;52.320;0.360;2022-12-29T08:50:56;6.90;99.90
42617;DHT22;28250;52.320;0.360;2022-12-29T08:53:22;6.90;99.90
42617;DHT22;28250;52.320;0.360;2022-12-29T08:55:54;6.90;99.90
42617;DHT22;28250;52.320;0.360;2022-12-29T08:58:22;7.00;99.90
42617;DHT22;28250;52.320;0.360;2022-12-29T09:00:48;7.00;99.90
42617;DHT22;28250;52.320;0.360;2022-12-29T09:03:14;7.00;99.90
42617;DHT22;28250;52.320;0.360;2022-12-29T09:05:40;7.10;99.90
42617;DHT22;28250;52.320;0.360;2022-12-29T09:08:07;7.10;99.90
42617;DHT22;28250;52.320;0.360;2022-12-29T09:10:33;7.10;99.90
42617;DHT22;28250;52.320;0.360;2022-12-29T09:12:59;7.20;99.90
42617;DHT22;28250;52.320;0.360;2022-12-29T09:15:25;7.20;99.90
42617;DHT22;28250;52.320;0.360;2022-12-29T09:17:52;7.20;99.90
42617;DHT22;28250;52.320;0.360;2022-12-29T09:20:19;7.20;99.90
42617;DHT22;28250;52.320;0.360;2022-12-29T09:22:45;7.30;99.90
42617;DHT22;28250;52.320;0.360;2022-12-29T09:25:12;7.30;99.90
42617;DHT22;28250;52.320;0.360;2022-12-29T09:27:39;7.40;99.90
42617;DHT22;28250;52.320;0.360;2022-12-29T09:30:07;7.40;99.90
42617;DHT22;28250;52.320;0.360;2022-12-29T09:32:35;7.50;99.90
42617;DHT22;28250;52.320;0.360;2022-12-29T09:35:02;7.50;99.90
42617;DHT22;28250;52.320;0.360;2022-12-29T09:37:29;7.60;99.90
42617;DHT22;28250;52.320;0.360;2022-12-29T09:39:55;7.60;99.90
42617;DHT22;28250;52.320;0.360;2022-12-29T09:42:32;7.70;99.90
42617;DHT22;28250;52.320;0.360;2022-12-29T09:47:48;7.60;99.90
42617;DHT22;28250;52.320;0.360;2022-12-29T09:53:07;7.60;99.90
42617;DHT22;28250;52.320;0.360;2022-12-29T09:55:38;7.80;99.90
42617;DHT22;28250;52.320;0.360;2022-12-29T09:58:14;7.90;99.90
42617;DHT22;28250;52.320;0.360;2022-12-29T10:03:15;8.20;99.90
42617;DHT22;28250;52.320;0.360;2022-12-29T10:11:09;8.60;99.90
42617;DHT22;28250;52.320;0.360;2022-12-29T10:13:49;8.70;99.90
42617;DHT22;28250;52.320;0.360;2022-12-29T10:24:46;9.00;99.90
42617;DHT22;28250;52.320;0.360;2022-12-29T10:27:15;9.10;99.90
42617;DHT22;28250;52.320;0.360;2022-12-29T10:29:44;9.10;99.90
42617;DHT22;28250;52.320;0.360;2022-12-29T10:32:28;9.10;99.90
42617;DHT22;28250;52.320;0.360;2022-12-29T10:34:57;9.10;99.90
42617;DHT22;28250;52.320;0.360;2022-12-29T10:40:33;9.10;99.90
42617;DHT22;28250;52.320;0.360;2022-12-29T10:43:25;9.20;99.90
42617;DHT22;28250;52.320;0.360;2022-12-29T10:45:58;9.20;99.90
42617;DHT22;28250;52.320;0.360;2022-12-29T10:48:30;9.20;99.90
42617;DHT22;28250;52.320;0.360;2022-12-29T10:50:58;9.20;99.90
42617;DHT22;28250;52.320;0.360;2022-12-29T10:53:32;9.20;99.90
42617;DHT22;28250;52.320;0.360;2022-12-29T10:56:00;9.30;99.90
42617;DHT22;28250;52.320;0.360;2022-12-29T10:58:27;9.30;99.90
42617;DHT22;28250;52.320;0.360;2022-12-29T11:00:55;9.30;99.90
42617;DHT22;28250;52.320;0.360;2022-12-29T11:08:21;9.40;99.90
42617;DHT22;28250;52.320;0.360;2022-12-29T11:10:58;9.40;99.90
42617;DHT22;28250;52.320;0.360;2022-12-29T11:13:28;9.50;99.90
42617;DHT22;28250;52.320;0.360;2022-12-29T11:15:55;9.50;99.90
42617;DHT22;28250;52.320;0.360;2022-12-29T11:18:23;9.50;99.90
42617;DHT22;28250;52.320;0.360;2022-12-29T11:20:52;9.60;99.90
42617;DHT22;28250;52.320;0.360;2022-12-29T11:23:29;9.60;99.90
42617;DHT22;28250;52.320;0.360;2022-12-29T11:28:44;9.70;99.90
42617;DHT22;28250;52.320;0.360;2022-12-29T11:31:15;9.70;99.90
42617;DHT22;28250;52.320;0.360;2022-12-29T11:33:43;9.70;99.90
42617;DHT22;28250;52.320;0.360;2022-12-29T11:36:19;9.90;99.90
42617;DHT22;28250;52.320;0.360;2022-12-29T11:38:49;10.00;99.90
42617;DHT22;28250;52.320;0.360;2022-12-29T11:41:23;10.00;99.90
42617;DHT22;28250;52.320;0.360;2022-12-29T11:43:51;9.70;99.90
42617;DHT22;28250;52.320;0.360;2022-12-29T11:46:22;9.80;99.90
42617;DHT22;28250;52.320;0.360;2022-12-29T11:48:49;9.70;99.90
42617;DHT22;28250;52.320;0.360;2022-12-29T11:54:05;9.60;99.90
42617;DHT22;28250;52.320;0.360;2022-12-29T11:56:38;9.50;99.90
42617;DHT22;28250;52.320;0.360;2022-12-29T12:04:57;9.20;99.90
42617;DHT22;28250;52.320;0.360;2022-12-29T12:13:08;9.20;99.90
42617;DHT22;28250;52.320;0.360;2022-12-29T12:15:40;9.50;99.90
42617;DHT22;28250;52.320;0.360;2022-12-29T12:20:50;9.60;99.90
42617;DHT22;28250;52.320;0.360;2022-12-29T12:23:25;9.50;99.90
42617;DHT22;28250;52.320;0.360;2022-12-29T12:25:57;9.40;99.90
42617;DHT22;28250;52.320;0.360;2022-12-29T12:31:21;9.80;99.90
42617;DHT22;28250;52.320;0.360;2022-12-29T12:33:54;9.80;99.90
42617;DHT22;28250;52.320;0.360;2022-12-29T12:38:55;9.70;99.90
42617;DHT22;28250;52.320;0.360;2022-12-29T13:03:50;9.80;99.90
42617;DHT22;28250;52.320;0.360;2022-12-29T13:12:24;9.30;99.90
42617;DHT22;28250;52.320;0.360;2022-12-29T13:33:55;9.50;99.90
42617;DHT22;28250;52.320;0.360;2022-12-29T13:36:29;9.50;99.90
42617;DHT22;28250;52.320;0.360;2022-12-29T13:39:02;9.40;99.90
42617;DHT22;28250;52.320;0.360;2022-12-29T13:44:24;9.10;99.90
42617;DHT22;28250;52.320;0.360;2022-12-29T13:46:53;9.10;99.90
42617;DHT22;28250;52.320;0.360;2022-12-29T13:49:21;9.20;99.90
42617;DHT22;28250;52.320;0.360;2022-12-29T13:51:51;9.20;99.90
42617;DHT22;28250;52.320;0.360;2022-12-29T14:02:32;9.00;99.90
42617;DHT22;28250;52.320;0.360;2022-12-29T14:05:00;9.00;99.90
42617;DHT22;28250;52.320;0.360;2022-12-29T14:07:27;8.90;99.90
42617;DHT22;28250;52.320;0.360;2022-12-29T14:09:55;8.80;99.90
42617;DHT22;28250;52.320;0.360;2022-12-29T14:17:59;8.80;99.90
42617;DHT22;28250;52.320;0.360;2022-12-29T14:20:28;8.80;99.90
42617;DHT22;28250;52.320;0.360;2022-12-29T14:22:56;8.70;99.90
42617;DHT22;28250;52.320;0.360;2022-12-29T14:28:28;8.70;99.90
42617;DHT22;28250;52.320;0.360;2022-12-29T14:30:56;8.60;99.90
42617;DHT22;28250;52.320;0.360;2022-12-29T14:33:26;8.50;99.90
42617;DHT22;28250;52.320;0.360;2022-12-29T14:35:54;8.40;99.90
42617;DHT22;28250;52.320;0.360;2022-12-29T14:38:23;8.40;99.90
42617;DHT22;28250;52.320;0.360;2022-12-29T14:40:51;8.40;99.90
42617;DHT22;28250;52.320;0.360;2022-12-29T14:43:20;8.30;99.90
42617;DHT22;28250;52.320;0.360;2022-12-29T14:45:54;8.30;99.90
42617;DHT22;28250;52.320;0.360;2022-12-29T14:53:57;8.20;99.90
42617;DHT22;28250;52.320;0.360;2022-12-29T14:56:24;8.20;99.90
42617;DHT22;28250;52.320;0.360;2022-12-29T14:58:53;8.10;99.90
42617;DHT22;28250;52.320;0.360;2022-12-29T15:01:35;8.10;99.90
42617;DHT22;28250;52.320;0.360;2022-12-29T15:04:22;8.00;99.90
42617;DHT22;28250;52.320;0.360;2022-12-29T15:06:51;7.80;99.90
42617;DHT22;28250;52.320;0.360;2022-12-29T15:12:15;7.70;99.90
42617;DHT22;28250;52.320;0.360;2022-12-29T15:22:56;7.40;99.90
42617;DHT22;28250;52.320;0.360;2022-12-29T15:25:24;7.40;99.90
42617;DHT22;28250;52.320;0.360;2022-12-29T15:27:53;7.40;99.90
42617;DHT22;28250;52.320;0.360;2022-12-29T15:30:21;7.30;99.90
42617;DHT22;28250;52.320;0.360;2022-12-29T15:32:47;7.30;99.90
42617;DHT22;28250;52.320;0.360;2022-12-29T15:35:22;7.30;99.90
42617;DHT22;28250;52.320;0.360;2022-12-29T15:37:51;7.20;99.90
42617;DHT22;28250;52.320;0.360;2022-12-29T15:40:22;7.20;99.90
42617;DHT22;28250;52.320;0.360;2022-12-29T15:45:35;7.20;99.90
42617;DHT22;28250;52.320;0.360;2022-12-29T15:48:01;7.30;99.90
42617;DHT22;28250;52.320;0.360;2022-12-29T15:50:30;7.20;99.90
42617;DHT22;28250;52.320;0.360;2022-12-29T15:52:57;7.20;99.90
42617;DHT22;28250;52.320;0.360;2022-12-29T15:55:27;7.10;99.90
42617;DHT22;28250;52.320;0.360;2022-12-29T15:57:57;7.20;99.90
42617;DHT22;28250;52.320;0.360;2022-12-29T16:00:25;7.10;99.90
42617;DHT22;28250;52.320;0.360;2022-12-29T16:02:54;7.10;99.90
42617;DHT22;28250;52.320;0.360;2022-12-29T16:05:21;7.10;99.90
42617;DHT22;28250;52.320;0.360;2022-12-29T16:10:51;7.10;99.90
42617;DHT22;28250;52.320;0.360;2022-12-29T16:13:23;7.00;99.90
42617;DHT22;28250;52.320;0.360;2022-12-29T16:15:55;7.00;99.90
42617;DHT22;28250;52.320;0.360;2022-12-29T16:18:25;7.00;99.90
42617;DHT22;28250;52.320;0.360;2022-12-29T16:20:53;7.00;99.90
42617;DHT22;28250;52.320;0.360;2022-12-29T16:23:24;6.90;99.90
42617;DHT22;28250;52.320;0.360;2022-12-29T16:25:51;6.90;99.90
42617;DHT22;28250;52.320;0.360;2022-12-29T16:28:21;6.90;99.90
42617;DHT22;28250;52.320;0.360;2022-12-29T16:33:53;6.90;99.90
42617;DHT22;28250;52.320;0.360;2022-12-29T16:36:22;6.80;99.90
42617;DHT22;28250;52.320;0.360;2022-12-29T16:38:48;6.80;99.90
42617;DHT22;28250;52.320;0.360;2022-12-29T16:49:36;6.70;99.90
42617;DHT22;28250;52.320;0.360;2022-12-29T16:52:11;6.70;99.90
42617;DHT22;28250;52.320;0.360;2022-12-29T16:54:39;6.70;99.90
42617;DHT22;28250;52.320;0.360;2022-12-29T16:57:06;6.60;99.90
42617;DHT22;28250;52.320;0.360;2022-12-29T16:59:34;6.60;99.90
42617;DHT22;28250;52.320;0.360;2022-12-29T17:02:06;6.60;99.90
42617;DHT22;28250;52.320;0.360;2022-12-29T17:04:33;6.50;99.90
42617;DHT22;28250;52.320;0.360;2022-12-29T17:07:00;6.50;99.90
42617;DHT22;28250;52.320;0.360;2022-12-29T17:09:27;6.40;99.90
42617;DHT22;28250;52.320;0.360;2022-12-29T17:11:54;6.50;99.90
42617;DHT22;28250;52.320;0.360;2022-12-29T17:17:05;6.40;99.90
42617;DHT22;28250;52.320;0.360;2022-12-29T17:19:39;6.40;99.90
42617;DHT22;28250;52.320;0.360;2022-12-29T17:22:13;6.40;99.90
42617;DHT22;28250;52.320;0.360;2022-12-29T17:24:42;6.40;99.90
42617;DHT22;28250;52.320;0.360;2022-12-29T17:27:09;6.30;99.90
42617;DHT22;28250;52.320;0.360;2022-12-29T17:29:44;6.30;99.90
42617;DHT22;28250;52.320;0.360;2022-12-29T17:32:11;6.30;99.90
42617;DHT22;28250;52.320;0.360;2022-12-29T17:34:39;6.30;99.90
42617;DHT22;28250;52.320;0.360;2022-12-29T17:39:51;6.30;99.90
42617;DHT22;28250;52.320;0.360;2022-12-29T17:42:18;6.30;99.90
42617;DHT22;28250;52.320;0.360;2022-12-29T17:44:44;6.20;99.90
42617;DHT22;28250;52.320;0.360;2022-12-29T17:47:11;6.20;99.90
42617;DHT22;28250;52.320;0.360;2022-12-29T17:49:37;6.20;99.90
42617;DHT22;28250;52.320;0.360;2022-12-29T17:52:03;6.20;99.90
42617;DHT22;28250;52.320;0.360;2022-12-29T17:54:31;6.10;99.90
42617;DHT22;28250;52.320;0.360;2022-12-29T17:56:57;6.10;99.90
42617;DHT22;28250;52.320;0.360;2022-12-29T17:59:23;6.00;99.90
42617;DHT22;28250;52.320;0.360;2022-12-29T18:01:50;6.00;99.90
42617;DHT22;28250;52.320;0.360;2022-12-29T18:04:17;6.10;99.90
42617;DHT22;28250;52.320;0.360;2022-12-29T18:06:44;6.10;99.90
42617;DHT22;28250;52.320;0.360;2022-12-29T18:09:11;6.10;99.90
42617;DHT22;28250;52.320;0.360;2022-12-29T18:11:38;6.10;99.90
42617;DHT22;28250;52.320;0.360;2022-12-29T18:14:10;6.10;99.90
42617;DHT22;28250;52.320;0.360;2022-12-29T18:16:38;6.00;99.90
42617;DHT22;28250;52.320;0.360;2022-12-29T18:19:04;6.00;99.90
42617;DHT22;28250;52.320;0.360;2022-12-29T18:21:30;6.00;99.90
42617;DHT22;28250;52.320;0.360;2022-12-29T18:23:56;6.00;99.90
42617;DHT22;28250;52.320;0.360;2022-12-29T18:26:23;6.00;99.90
42617;DHT22;28250;52.320;0.360;2022-12-29T18:28:53;6.00;99.90
42617;DHT22;28250;52.320;0.360;2022-12-29T18:31:22;6.00;99.90
42617;DHT22;28250;52.320;0.360;2022-12-29T18:33:51;6.00;99.90
42617;DHT22;28250;52.320;0.360;2022-12-29T18:36:19;6.00;99.90
42617;DHT22;28250;52.320;0.360;2022-12-29T18:38:45;6.00;99.90
42617;DHT22;28250;52.320;0.360;2022-12-29T18:41:15;6.00;99.90
42617;DHT22;28250;52.320;0.360;2022-12-29T18:43:43;6.00;99.90
42617;DHT22;28250;52.320;0.360;2022-12-29T18:46:10;6.00;99.90
42617;DHT22;28250;52.320;0.360;2022-12-29T18:48:37;5.90;99.90
42617;DHT22;28250;52.320;0.360;2022-12-29T18:51:03;5.90;99.90
42617;DHT22;28250;52.320;0.360;2022-12-29T18:53:30;5.90;99.90
42617;DHT22;28250;52.320;0.360;2022-12-29T18:55:57;5.90;99.90
42617;DHT22;28250;52.320;0.360;2022-12-29T18:58:24;5.90;99.90
42617;DHT22;28250;52.320;0.360;2022-12-29T19:00:52;5.90;99.90
42617;DHT22;28250;52.320;0.360;2022-12-29T19:03:19;5.90;99.90
42617;DHT22;28250;52.320;0.360;2022-12-29T19:05:46;5.90;99.90
42617;DHT22;28250;52.320;0.360;2022-12-29T19:08:13;5.90;99.90
42617;DHT22;28250;52.320;0.360;2022-12-29T19:10:40;5.90;99.90
42617;DHT22;28250;52.320;0.360;2022-12-29T19:13:13;5.90;99.90
42617;DHT22;28250;52.320;0.360;2022-12-29T19:15:41;5.90;99.90
42617;DHT22;28250;52.320;0.360;2022-12-29T19:18:08;5.90;99.90
42617;DHT22;28250;52.320;0.360;2022-12-29T19:20:37;5.80;99.90
42617;DHT22;28250;52.320;0.360;2022-12-29T19:23:06;5.90;99.90